createdAt,value
2022-12-25T00:01:22.786Z,90.56
2022-12-25T00:03:53.118Z,90.46
2022-12-25T00:06:23.490Z,90.62
2022-12-25T00:08:52.993Z,90.55
2022-12-25T00:11:23.207Z,90.68
2022-12-25T00:13:53.443Z,90.58
2022-12-25T00:16:27.410Z,90.57
2022-12-25T00:18:58.978Z,90.65
2022-12-25T00:21:28.402Z,90.58
2022-12-25T00:23:58.854Z,91.02
2022-12-25T00:26:29.557Z,90.59
2022-12-25T00:29:00.549Z,90.42
2022-12-25T00:31:32.525Z,90.30
2022-12-25T00:34:01.925Z,90.40
2022-12-25T00:36:33.725Z,90.27
2022-12-25T00:39:07.403Z,90.19
2022-12-25T00:41:49.335Z,90.02
2022-12-25T00:44:18.826Z,89.82
2022-12-25T00:46:50.871Z,89.57
2022-12-25T00:49:20.239Z,90.25
2022-12-25T00:51:51.025Z,90.03
2022-12-25T00:54:20.723Z,89.88
2022-12-25T00:56:50.410Z,89.37
2022-12-25T00:59:19.824Z,89.56
2022-12-25T01:01:51.844Z,90.21
2022-12-25T01:04:21.370Z,90.46
2022-12-25T01:06:50.735Z,90.57
2022-12-25T01:09:32.629Z,90.32
2022-12-25T01:12:01.973Z,90.17
2022-12-25T01:14:31.340Z,90.54
2022-12-25T01:17:03.279Z,90.84
2022-12-25T01:19:32.620Z,90.75
2022-12-25T01:22:01.999Z,90.80
2022-12-25T01:24:31.392Z,90.60
2022-12-25T01:27:00.756Z,90.73
2022-12-25T01:29:30.177Z,90.69
2022-12-25T01:31:59.631Z,90.64
2022-12-25T01:34:31.696Z,90.42
2022-12-25T01:37:01.109Z,90.55
2022-12-25T01:39:30.453Z,90.43
2022-12-25T01:42:00.051Z,90.37
2022-12-25T01:44:59.606Z,90.69
2022-12-25T01:47:28.988Z,90.25
2022-12-25T01:50:01.152Z,90.42
2022-12-25T01:52:31.804Z,90.35
2022-12-25T01:55:06.212Z,89.92
2022-12-25T01:57:38.692Z,90.18
2022-12-25T02:00:10.315Z,89.92
2022-12-25T02:02:40.946Z,89.97
2022-12-25T02:05:18.668Z,89.58
2022-12-25T02:07:49.717Z,90.10
2022-12-25T02:10:19.741Z,90.25
2022-12-25T02:12:50.870Z,90.52
2022-12-25T02:15:22.751Z,90.50
2022-12-25T02:18:03.755Z,90.83
2022-12-25T02:20:46.291Z,90.44
2022-12-25T02:23:37.162Z,90.38
2022-12-25T02:26:19.010Z,90.20
2022-12-25T02:28:57.884Z,89.92
2022-12-25T02:31:35.017Z,89.78
2022-12-25T02:34:11.510Z,88.92
2022-12-25T02:36:47.258Z,88.90
2022-12-25T02:39:43.110Z,88.70
2022-12-25T02:42:19.360Z,88.70
2022-12-25T02:45:05.799Z,88.47
2022-12-25T02:47:49.351Z,88.46
2022-12-25T02:50:32.725Z,88.65
2022-12-25T02:53:16.735Z,88.75
2022-12-25T02:56:01.963Z,88.93
2022-12-25T02:58:45.234Z,89.39
2022-12-25T03:01:32.672Z,89.20
2022-12-25T03:04:18.454Z,88.86
2022-12-25T03:07:03.621Z,88.74
2022-12-25T03:09:50.697Z,88.46
2022-12-25T03:12:27.799Z,88.66
2022-12-25T03:15:09.885Z,88.79
2022-12-25T03:17:41.954Z,89.35
2022-12-25T03:20:25.390Z,89.92
2022-12-25T03:23:08.520Z,89.92
2022-12-25T03:25:50.873Z,89.87
2022-12-25T03:28:20.261Z,90.00
2022-12-25T03:31:14.207Z,89.74
2022-12-25T03:34:24.784Z,89.79
2022-12-25T03:37:14.466Z,89.56
2022-12-25T03:40:04.344Z,89.61
2022-12-25T03:42:52.630Z,89.76
2022-12-25T03:45:40.705Z,89.53
2022-12-25T03:48:25.412Z,89.70
2022-12-25T03:51:16.456Z,89.63
2022-12-25T03:54:02.450Z,89.40
2022-12-25T03:56:45.855Z,89.75
2022-12-25T03:59:27.762Z,89.94
2022-12-25T04:02:09.841Z,89.71
2022-12-25T04:04:52.449Z,89.49
2022-12-25T04:07:36.985Z,89.30
2022-12-25T04:10:19.509Z,89.44
2022-12-25T04:13:01.492Z,89.51
2022-12-25T04:15:43.439Z,89.70
2022-12-25T04:18:25.805Z,89.47
2022-12-25T04:21:22.917Z,89.42
2022-12-25T04:24:07.355Z,89.51
2022-12-25T04:26:49.254Z,89.50
2022-12-25T04:29:31.146Z,89.27
2022-12-25T04:32:13.043Z,89.74
2022-12-25T04:34:54.942Z,89.58
2022-12-25T04:37:24.382Z,90.03
2022-12-25T04:39:56.304Z,90.10
2022-12-25T04:42:25.700Z,90.37
2022-12-25T04:44:55.048Z,90.30
2022-12-25T04:47:24.422Z,90.22
2022-12-25T04:49:53.922Z,90.32
2022-12-25T04:52:23.330Z,90.62
2022-12-25T04:54:52.941Z,90.53
2022-12-25T04:57:24.940Z,90.40
2022-12-25T04:59:54.327Z,89.88
2022-12-25T05:02:23.826Z,89.80
2022-12-25T05:04:53.344Z,89.60
2022-12-25T05:07:22.718Z,89.51
2022-12-25T05:09:52.093Z,89.29
2022-12-25T05:12:21.454Z,89.41
2022-12-25T05:14:53.401Z,89.06
2022-12-25T05:17:22.773Z,89.48
2022-12-25T05:19:52.141Z,89.34
2022-12-25T05:22:21.525Z,89.08
2022-12-25T05:24:50.859Z,89.41
2022-12-25T05:27:20.297Z,89.23
2022-12-25T05:29:49.671Z,89.03
2022-12-25T05:32:21.638Z,89.16
2022-12-25T05:34:51.066Z,88.90
2022-12-25T05:37:20.505Z,89.19
2022-12-25T05:39:49.874Z,89.18
2022-12-25T05:42:19.219Z,89.11
2022-12-25T05:44:48.566Z,88.91
2022-12-25T05:47:17.947Z,89.16
2022-12-25T05:49:49.882Z,89.26
2022-12-25T05:52:19.244Z,89.04
2022-12-25T05:54:48.614Z,89.06
2022-12-25T05:57:17.984Z,89.20
2022-12-25T05:59:47.292Z,89.20
2022-12-25T06:02:16.735Z,89.03
2022-12-25T06:04:46.265Z,89.10
2022-12-25T06:07:18.172Z,89.28
2022-12-25T06:09:47.538Z,89.50
2022-12-25T06:12:17.038Z,89.69
2022-12-25T06:14:46.399Z,89.62
2022-12-25T06:17:15.847Z,89.64
2022-12-25T06:19:45.645Z,89.48
2022-12-25T06:22:14.995Z,89.78
2022-12-25T06:24:47.127Z,89.37
2022-12-25T06:27:16.510Z,89.75
2022-12-25T06:29:45.894Z,89.45
2022-12-25T06:32:15.326Z,89.71
2022-12-25T06:34:44.743Z,89.42
2022-12-25T06:37:14.200Z,89.67
2022-12-25T06:39:43.632Z,89.29
2022-12-25T06:42:15.596Z,89.45
2022-12-25T06:44:44.970Z,89.48
2022-12-25T06:47:14.370Z,89.20
2022-12-25T06:49:43.752Z,89.45
2022-12-25T06:52:13.193Z,89.48
2022-12-25T06:54:42.554Z,89.52
2022-12-25T06:57:12.038Z,89.77
2022-12-25T06:59:45.604Z,90.00
2022-12-25T07:02:22.422Z,90.22
2022-12-25T07:04:52.124Z,90.54
2022-12-25T07:07:23.030Z,90.94
2022-12-25T07:09:52.616Z,90.69
2022-12-25T07:12:24.449Z,90.94
2022-12-25T07:14:57.321Z,91.26
2022-12-25T07:17:27.331Z,91.11
2022-12-25T07:19:57.280Z,90.82
2022-12-25T07:22:26.750Z,90.80
2022-12-25T07:24:56.162Z,90.67
2022-12-25T07:27:25.580Z,90.42
2022-12-25T07:29:57.541Z,90.70
2022-12-25T07:32:26.940Z,90.50
2022-12-25T07:34:56.323Z,90.06
2022-12-25T07:37:25.729Z,90.04
2022-12-25T07:39:55.125Z,89.95
2022-12-25T07:42:25.469Z,89.96
2022-12-25T07:44:59.750Z,89.95
2022-12-25T07:47:29.107Z,89.94
2022-12-25T07:49:58.495Z,89.89
2022-12-25T07:52:27.940Z,89.60
2022-12-25T07:54:57.314Z,89.77
2022-12-25T07:57:26.719Z,89.95
2022-12-25T07:59:58.723Z,89.99
2022-12-25T08:02:29.195Z,90.29
2022-12-25T08:04:58.882Z,90.20
2022-12-25T08:07:28.610Z,90.23
2022-12-25T08:09:58.081Z,89.99
2022-12-25T08:12:27.484Z,89.88
2022-12-25T08:14:59.473Z,89.68
2022-12-25T08:17:28.929Z,89.71
2022-12-25T08:19:58.327Z,89.63
2022-12-25T08:22:27.765Z,89.44
2022-12-25T08:24:57.152Z,89.44
2022-12-25T08:27:26.699Z,89.44
2022-12-25T08:29:58.674Z,89.19
2022-12-25T08:32:28.322Z,88.94
2022-12-25T08:34:57.746Z,88.83
2022-12-25T08:37:27.175Z,88.87
2022-12-25T08:39:56.557Z,88.59
2022-12-25T08:42:25.980Z,88.35
2022-12-25T08:44:55.433Z,88.26
2022-12-25T08:47:27.422Z,87.76
2022-12-25T08:49:56.783Z,87.94
2022-12-25T08:52:26.570Z,87.73
2022-12-25T08:54:56.351Z,87.70
2022-12-25T08:57:25.752Z,87.44
2022-12-25T08:59:55.214Z,87.31
2022-12-25T09:02:27.376Z,87.46
2022-12-25T09:04:56.911Z,87.65
2022-12-25T09:07:26.325Z,87.63
2022-12-25T09:10:04.507Z,87.29
2022-12-25T09:12:33.917Z,87.16
2022-12-25T09:15:03.270Z,86.76
2022-12-25T09:17:35.857Z,86.71
2022-12-25T09:20:05.937Z,86.37
2022-12-25T09:22:36.430Z,86.04
2022-12-25T09:25:06.171Z,86.04
2022-12-25T09:27:35.563Z,85.88
2022-12-25T09:30:04.986Z,85.78
2022-12-25T09:32:36.993Z,85.63
2022-12-25T09:35:06.672Z,85.84
2022-12-25T09:37:36.083Z,85.56
2022-12-25T09:40:05.900Z,85.48
2022-12-25T09:42:35.451Z,85.48
2022-12-25T09:45:08.467Z,85.77
2022-12-25T09:47:44.580Z,85.72
2022-12-25T09:50:16.499Z,85.82
2022-12-25T09:52:52.540Z,85.97
2022-12-25T09:55:25.323Z,85.66
2022-12-25T09:57:55.455Z,85.77
2022-12-25T10:00:26.767Z,85.66
2022-12-25T10:03:14.915Z,85.69
2022-12-25T10:05:55.644Z,85.67
2022-12-25T10:08:38.447Z,85.80
2022-12-25T10:11:18.831Z,85.87
2022-12-25T10:14:02.667Z,86.09
2022-12-25T10:16:40.029Z,85.83
2022-12-25T10:19:29.658Z,86.09
2022-12-25T10:22:03.284Z,86.06
2022-12-25T10:24:39.184Z,85.92
2022-12-25T10:27:16.843Z,85.72
2022-12-25T10:29:47.432Z,85.63
2022-12-25T10:32:17.039Z,85.62
2022-12-25T10:34:49.627Z,85.35
2022-12-25T10:37:19.639Z,85.64
2022-12-25T10:39:49.021Z,85.44
2022-12-25T10:42:33.602Z,85.53
2022-12-25T10:45:04.470Z,85.24
2022-12-25T10:47:37.985Z,85.44
2022-12-25T10:50:15.413Z,85.60
2022-12-25T10:52:57.271Z,85.41
2022-12-25T10:55:29.567Z,85.36
2022-12-25T10:58:02.075Z,85.64
2022-12-25T11:00:33.674Z,85.83
2022-12-25T11:03:03.423Z,85.71
2022-12-25T11:05:37.624Z,85.90
2022-12-25T11:08:21.844Z,85.95
2022-12-25T11:10:57.890Z,85.91
2022-12-25T11:13:29.844Z,86.21
2022-12-25T11:16:09.495Z,85.78
2022-12-25T11:18:49.627Z,85.67
2022-12-25T11:21:25.556Z,85.67
2022-12-25T11:24:00.302Z,85.36
2022-12-25T11:26:31.315Z,85.27
2022-12-25T11:29:01.249Z,85.26
2022-12-25T11:31:39.873Z,84.88
2022-12-25T11:34:14.214Z,84.43
2022-12-25T11:36:49.578Z,84.14
2022-12-25T11:39:26.636Z,84.15
2022-12-25T11:42:00.532Z,83.93
2022-12-25T11:44:43.723Z,84.17
2022-12-25T11:47:20.399Z,84.09
2022-12-25T11:49:58.622Z,83.98
2022-12-25T11:52:38.072Z,84.01
2022-12-25T11:55:14.421Z,84.15
2022-12-25T11:57:46.260Z,83.95
2022-12-25T12:00:18.759Z,84.23
2022-12-25T12:02:53.973Z,84.40
2022-12-25T12:05:28.561Z,84.84
2022-12-25T12:08:03.245Z,85.59
2022-12-25T12:10:41.156Z,86.09
2022-12-25T12:13:27.783Z,85.72
2022-12-25T12:15:58.535Z,86.20
2022-12-25T12:18:33.511Z,86.33
2022-12-25T12:21:05.581Z,86.50
2022-12-25T12:23:39.850Z,86.32
2022-12-25T12:26:09.293Z,86.41
2022-12-25T12:28:47.564Z,86.90
2022-12-25T12:31:17.709Z,87.27
2022-12-25T12:33:56.032Z,87.46
2022-12-25T12:36:35.561Z,87.17
2022-12-25T12:39:08.693Z,87.30
2022-12-25T12:41:48.374Z,87.33
2022-12-25T12:44:19.652Z,87.75
2022-12-25T12:46:57.710Z,87.43
2022-12-25T12:49:29.409Z,87.40
2022-12-25T12:52:16.114Z,87.39
2022-12-25T12:54:59.618Z,87.79
2022-12-25T12:57:32.758Z,87.82
2022-12-25T13:00:10.042Z,87.94
2022-12-25T13:03:05.560Z,87.30
2022-12-25T13:05:41.807Z,87.30
2022-12-25T13:08:28.341Z,87.45
2022-12-25T13:11:13.250Z,87.54
2022-12-25T13:13:44.577Z,87.78
2022-12-25T13:16:22.353Z,87.73
2022-12-25T13:18:53.760Z,87.78
2022-12-25T13:21:25.572Z,87.70
2022-12-25T13:24:08.876Z,87.47
2022-12-25T13:26:42.097Z,87.52
2022-12-25T13:29:25.032Z,87.84
2022-12-25T13:31:54.247Z,87.86
2022-12-25T13:34:33.790Z,87.80
2022-12-25T13:37:09.714Z,87.89
2022-12-25T13:39:42.114Z,88.17
2022-12-25T13:42:20.689Z,88.72
2022-12-25T13:44:52.614Z,88.50
2022-12-25T13:47:25.691Z,89.06
2022-12-25T13:49:56.936Z,89.03
2022-12-25T13:52:31.143Z,89.21
2022-12-25T13:55:02.877Z,89.30
2022-12-25T13:57:37.986Z,89.35
2022-12-25T14:00:10.062Z,89.81
2022-12-25T14:02:42.223Z,89.96
2022-12-25T14:05:26.267Z,90.14
2022-12-25T14:07:56.247Z,89.92
2022-12-25T14:10:27.864Z,89.51
2022-12-25T14:13:04.785Z,89.69
2022-12-25T14:15:36.426Z,89.86
2022-12-25T14:18:05.922Z,89.62
2022-12-25T14:20:39.788Z,89.57
2022-12-25T14:23:10.092Z,89.59
2022-12-25T14:25:45.689Z,89.50
2022-12-25T14:28:23.439Z,89.29
2022-12-25T14:30:53.096Z,89.48
2022-12-25T14:33:25.930Z,89.42
2022-12-25T14:35:55.677Z,89.51
2022-12-25T14:38:27.400Z,89.63
2022-12-25T14:41:04.499Z,89.38
2022-12-25T14:43:37.165Z,89.76
2022-12-25T14:46:09.081Z,89.57
2022-12-25T14:48:38.497Z,89.51
2022-12-25T14:51:11.681Z,89.34
2022-12-25T14:53:43.794Z,89.61
2022-12-25T14:56:13.213Z,89.50
2022-12-25T14:58:50.924Z,89.92
2022-12-25T15:01:25.013Z,89.78
2022-12-25T15:03:54.973Z,89.86
2022-12-25T15:06:25.376Z,89.86
2022-12-25T15:09:00.082Z,89.85
2022-12-25T15:11:30.172Z,89.78
2022-12-25T15:14:02.386Z,89.84
2022-12-25T15:16:35.444Z,89.94
2022-12-25T15:19:04.889Z,89.96
2022-12-25T15:21:37.105Z,90.12
2022-12-25T15:24:07.186Z,90.30
2022-12-25T15:26:36.587Z,90.03
2022-12-25T15:29:09.433Z,90.04
2022-12-25T15:31:41.235Z,90.35
2022-12-25T15:34:20.373Z,90.44
2022-12-25T15:36:49.873Z,90.75
2022-12-25T15:39:19.238Z,90.77
2022-12-25T15:42:01.129Z,90.61
2022-12-25T15:44:33.068Z,90.58
2022-12-25T15:47:02.421Z,90.65
2022-12-25T15:49:31.851Z,90.44
2022-12-25T15:52:03.613Z,90.43
2022-12-25T15:54:33.210Z,90.79
2022-12-25T15:57:04.979Z,90.84
2022-12-25T15:59:36.943Z,90.59
2022-12-25T16:02:16.226Z,90.76
2022-12-25T16:04:46.409Z,90.88
2022-12-25T16:07:17.918Z,90.79
2022-12-25T16:09:47.775Z,90.95
2022-12-25T16:12:17.154Z,90.84
2022-12-25T16:14:49.129Z,91.18
2022-12-25T16:17:18.494Z,90.95
2022-12-25T16:19:48.006Z,90.88
2022-12-25T16:22:23.103Z,91.02
2022-12-25T16:24:52.905Z,91.03
2022-12-25T16:27:22.548Z,90.90
2022-12-25T16:29:55.029Z,90.82
2022-12-25T16:32:24.554Z,90.69
2022-12-25T16:34:54.091Z,90.88
2022-12-25T16:37:24.566Z,91.13
2022-12-25T16:39:53.965Z,91.11
2022-12-25T16:42:23.403Z,91.14
2022-12-25T16:44:55.377Z,91.24
2022-12-25T16:47:24.739Z,91.59
2022-12-25T16:49:54.094Z,91.51
2022-12-25T16:52:23.674Z,91.33
2022-12-25T16:54:53.044Z,91.22
2022-12-25T16:57:22.416Z,91.03
2022-12-25T16:59:54.720Z,91.34
2022-12-25T17:02:24.623Z,91.45
2022-12-25T17:04:54.703Z,91.48
2022-12-25T17:07:24.112Z,91.40
2022-12-25T17:09:53.530Z,91.13
2022-12-25T17:12:22.896Z,91.07
2022-12-25T17:14:54.938Z,91.37
2022-12-25T17:17:24.303Z,91.38
2022-12-25T17:19:53.711Z,91.35
2022-12-25T17:22:23.114Z,91.28
2022-12-25T17:24:52.503Z,91.19
2022-12-25T17:27:21.888Z,91.03
2022-12-25T17:29:51.519Z,91.14
2022-12-25T17:32:23.502Z,91.03
2022-12-25T17:34:53.362Z,90.92
2022-12-25T17:37:22.796Z,90.84
2022-12-25T17:39:52.152Z,91.18
2022-12-25T17:42:21.558Z,90.96
2022-12-25T17:44:51.001Z,90.99
2022-12-25T17:47:23.486Z,90.72
2022-12-25T17:49:53.025Z,90.72
2022-12-25T17:52:22.397Z,90.57
2022-12-25T17:54:51.819Z,90.56
2022-12-25T17:57:21.233Z,90.74
2022-12-25T17:59:51.679Z,90.46
2022-12-25T18:02:24.092Z,90.34
2022-12-25T18:04:53.697Z,90.23
2022-12-25T18:07:23.322Z,90.03
2022-12-25T18:09:52.950Z,89.96
2022-12-25T18:12:22.418Z,89.85
2022-12-25T18:14:51.794Z,89.92
2022-12-25T18:17:23.811Z,90.06
2022-12-25T18:19:53.343Z,90.00
2022-12-25T18:22:22.840Z,89.94
2022-12-25T18:24:52.700Z,89.72
2022-12-25T18:27:22.190Z,89.67
2022-12-25T18:29:51.524Z,89.48
2022-12-25T18:32:28.040Z,89.55
2022-12-25T18:34:58.035Z,89.47
2022-12-25T18:37:28.044Z,89.61
2022-12-25T18:39:57.447Z,89.63
2022-12-25T18:42:43.113Z,89.51
2022-12-25T18:45:14.830Z,89.44
2022-12-25T18:47:47.406Z,89.31
2022-12-25T18:50:16.819Z,89.05
2022-12-25T18:52:48.406Z,89.28
2022-12-25T18:55:20.793Z,89.17
2022-12-25T18:57:50.475Z,88.78
2022-12-25T19:00:20.626Z,88.77
2022-12-25T19:02:53.292Z,88.87
2022-12-25T19:05:23.670Z,88.87
2022-12-25T19:07:53.200Z,88.91
2022-12-25T19:10:22.836Z,88.88
2022-12-25T19:12:52.244Z,88.85
2022-12-25T19:15:21.664Z,88.67
2022-12-25T19:17:53.844Z,88.51
2022-12-25T19:20:23.245Z,88.65
2022-12-25T19:22:52.702Z,88.43
2022-12-25T19:25:22.295Z,88.59
2022-12-25T19:27:51.673Z,88.55
2022-12-25T19:30:21.224Z,88.52
2022-12-25T19:32:53.251Z,88.47
2022-12-25T19:35:22.828Z,88.53
2022-12-25T19:37:52.312Z,88.52
2022-12-25T19:40:22.628Z,88.39
2022-12-25T19:42:52.063Z,88.54
2022-12-25T19:45:21.587Z,88.58
2022-12-25T19:47:53.566Z,88.44
2022-12-25T19:50:28.349Z,88.58
2022-12-25T19:52:57.865Z,88.72
2022-12-25T19:55:27.291Z,88.45
2022-12-25T19:57:59.181Z,88.48
2022-12-25T20:00:28.652Z,88.43
2022-12-25T20:03:01.446Z,88.51
2022-12-25T20:05:31.911Z,88.51
2022-12-25T20:08:01.398Z,88.51
2022-12-25T20:10:30.770Z,88.56
2022-12-25T20:13:00.255Z,88.50
2022-12-25T20:15:29.617Z,88.43
2022-12-25T20:18:02.905Z,88.52
2022-12-25T20:20:32.940Z,88.40
2022-12-25T20:23:02.341Z,88.56
2022-12-25T20:25:31.801Z,88.58
2022-12-25T20:28:01.250Z,88.29
2022-12-25T20:30:30.685Z,88.47
2022-12-25T20:33:02.682Z,88.67
2022-12-25T20:35:32.089Z,88.78
2022-12-25T20:38:01.478Z,89.02
2022-12-25T20:40:32.461Z,89.10
2022-12-25T20:43:11.631Z,89.12
2022-12-25T20:45:43.103Z,88.76
2022-12-25T20:48:15.096Z,88.42
2022-12-25T20:50:44.487Z,88.54
2022-12-25T20:53:13.883Z,88.47
2022-12-25T20:55:48.114Z,88.47
2022-12-25T20:58:19.588Z,88.62
2022-12-25T21:00:49.048Z,88.93
2022-12-25T21:03:21.319Z,89.35
2022-12-25T21:05:54.015Z,89.68
2022-12-25T21:08:25.804Z,90.25
2022-12-25T21:11:00.679Z,90.21
2022-12-25T21:13:32.900Z,89.99
2022-12-25T21:16:02.785Z,90.11
2022-12-25T21:18:34.791Z,90.17
2022-12-25T21:21:09.972Z,90.15
2022-12-25T21:23:41.741Z,90.52
2022-12-25T21:26:16.808Z,90.68
2022-12-25T21:28:46.177Z,90.73
2022-12-25T21:31:15.721Z,90.76
2022-12-25T21:33:52.053Z,90.60
2022-12-25T21:36:27.096Z,90.40
2022-12-25T21:38:58.792Z,90.44
2022-12-25T21:41:29.892Z,90.58
2022-12-25T21:43:59.764Z,90.56
2022-12-25T21:46:30.444Z,90.78
2022-12-25T21:49:03.350Z,90.74
2022-12-25T21:51:47.505Z,90.84
2022-12-25T21:54:18.454Z,91.02
2022-12-25T21:56:49.738Z,90.97
2022-12-25T21:59:20.741Z,90.99
2022-12-25T22:01:51.752Z,90.98
2022-12-25T22:04:25.670Z,91.10
2022-12-25T22:07:07.778Z,91.12
2022-12-25T22:09:37.413Z,91.25
2022-12-25T22:12:19.878Z,91.19
2022-12-25T22:15:02.495Z,91.14
2022-12-25T22:17:46.344Z,91.36
2022-12-25T22:20:20.353Z,91.49
2022-12-25T22:22:50.131Z,92.07
2022-12-25T22:25:20.415Z,91.90
2022-12-25T22:27:50.945Z,91.80
2022-12-25T22:30:22.871Z,91.78
2022-12-25T22:32:52.536Z,91.73
2022-12-25T22:35:25.052Z,91.90
2022-12-25T22:37:54.799Z,91.68
2022-12-25T22:40:24.573Z,92.01
2022-12-25T22:42:56.497Z,91.81
2022-12-25T22:45:26.115Z,91.86
2022-12-25T22:47:55.501Z,91.83
2022-12-25T22:50:27.525Z,91.86
2022-12-25T22:52:56.896Z,91.94
2022-12-25T22:55:26.414Z,91.93
2022-12-25T22:57:55.807Z,92.04
2022-12-25T23:00:25.226Z,92.03
2022-12-25T23:02:54.727Z,91.90
2022-12-25T23:05:27.123Z,92.09
2022-12-25T23:07:56.554Z,92.04
2022-12-25T23:10:25.930Z,92.03
2022-12-25T23:13:07.813Z,92.28
2022-12-25T23:15:37.216Z,92.07
2022-12-25T23:18:19.688Z,92.16
2022-12-25T23:21:04.307Z,92.10
2022-12-25T23:23:46.217Z,92.12
2022-12-25T23:26:17.212Z,92.20
2022-12-25T23:28:59.269Z,91.88
2022-12-25T23:31:31.709Z,91.79
2022-12-25T23:34:01.286Z,91.82
2022-12-25T23:36:33.658Z,92.00
2022-12-25T23:39:09.562Z,92.04
2022-12-25T23:41:39.970Z,92.04
2022-12-25T23:44:09.788Z,91.96
2022-12-25T23:46:40.136Z,91.93
2022-12-25T23:49:11.291Z,92.02
2022-12-25T23:51:45.686Z,92.22
2022-12-25T23:54:17.613Z,92.06
2022-12-25T23:56:47.563Z,92.24
2022-12-25T23:59:17.345Z,92.24
